createdAt,value
2023-02-14T00:02:26.812Z,63.70
2023-02-14T00:05:12.640Z,55.85
2023-02-14T00:07:58.496Z,56.40
2023-02-14T00:10:44.386Z,50.80
2023-02-14T00:13:30.320Z,49.42
2023-02-14T00:16:16.319Z,53.67
2023-02-14T00:19:04.848Z,51.50
2023-02-14T00:21:51.672Z,52.00
2023-02-14T00:24:37.563Z,54.22
2023-02-14T00:27:23.402Z,56.28
2023-02-14T00:30:11.272Z,71.07
2023-02-14T00:32:57.483Z,65.82
2023-02-14T00:35:43.360Z,61.45
2023-02-14T00:38:29.357Z,60.10
2023-02-14T00:41:19.287Z,58.80
2023-02-14T00:44:05.923Z,58.55
2023-02-14T00:46:52.139Z,56.47
2023-02-14T00:49:37.939Z,55.30
2023-02-14T00:52:23.802Z,52.15
2023-02-14T00:55:09.739Z,54.17
2023-02-14T00:57:55.567Z,54.55
2023-02-14T01:00:41.654Z,56.35
2023-02-14T01:03:28.252Z,56.35
2023-02-14T01:06:14.935Z,54.13
2023-02-14T01:09:00.963Z,58.38
2023-02-14T01:11:46.765Z,59.85
2023-02-14T01:14:33.643Z,54.88
2023-02-14T01:17:19.451Z,57.17
2023-02-14T01:20:07.659Z,56.08
2023-02-14T01:22:53.620Z,53.63
2023-02-14T01:25:40.006Z,54.72
2023-02-14T01:28:25.740Z,53.92
2023-02-14T01:31:14.908Z,56.08
2023-02-14T01:34:00.679Z,62.50
2023-02-14T01:36:48.022Z,77.82
2023-02-14T01:39:33.788Z,86.40
2023-02-14T01:42:19.606Z,82.60
2023-02-14T01:45:15.322Z,74.95
2023-02-14T01:48:01.513Z,61.78
2023-02-14T01:50:49.018Z,50.40
2023-02-14T01:53:34.794Z,45.95
2023-02-14T01:56:28.723Z,43.30
2023-02-14T01:59:18.147Z,37.65
2023-02-14T02:02:05.197Z,31.02
2023-02-14T02:04:54.255Z,32.17
2023-02-14T02:07:40.283Z,32.47
2023-02-14T02:10:26.387Z,44.05
2023-02-14T02:13:18.110Z,52.00
2023-02-14T02:16:28.991Z,50.40
2023-02-14T02:19:21.732Z,52.15
2023-02-14T02:22:26.407Z,56.20
2023-02-14T02:25:45.579Z,55.13
2023-02-14T02:28:53.228Z,54.50
2023-02-14T02:31:42.336Z,54.35
2023-02-14T02:35:06.171Z,53.35
2023-02-14T02:38:28.554Z,54.53
2023-02-14T02:41:28.653Z,42.83
2023-02-14T02:44:19.237Z,36.45
2023-02-14T02:47:16.652Z,36.90
2023-02-14T02:50:37.961Z,30.33
2023-02-14T02:53:54.498Z,25.23
2023-02-14T02:56:49.906Z,21.77
2023-02-14T02:59:39.927Z,22.35
2023-02-14T03:02:54.838Z,21.02
2023-02-14T03:05:41.364Z,20.33
2023-02-14T03:08:27.417Z,21.40
2023-02-14T03:11:13.557Z,19.67
2023-02-14T03:14:19.288Z,21.15
2023-02-14T03:17:14.566Z,21.23
2023-02-14T03:20:17.835Z,19.95
2023-02-14T03:23:04.093Z,20.83
2023-02-14T03:26:07.012Z,20.27
2023-02-14T03:32:09.457Z,19.85
2023-02-14T03:35:23.516Z,19.95
2023-02-14T03:38:31.475Z,21.30
2023-02-14T03:41:23.300Z,20.70
2023-02-14T03:44:11.503Z,20.00
2023-02-14T03:47:10.966Z,19.42
2023-02-14T03:50:04.275Z,20.65
2023-02-14T03:52:52.638Z,19.08
2023-02-14T03:55:47.824Z,32.83
2023-02-14T03:58:46.351Z,35.83
2023-02-14T04:02:03.651Z,36.28
2023-02-14T04:04:51.317Z,34.47
2023-02-14T04:07:46.519Z,37.08
2023-02-14T04:10:32.577Z,34.47
2023-02-14T04:13:18.456Z,31.20
2023-02-14T04:16:04.640Z,27.02
2023-02-14T04:19:08.997Z,27.67
2023-02-14T04:21:55.235Z,34.78
2023-02-14T04:24:40.917Z,36.47
2023-02-14T04:27:26.805Z,39.85
2023-02-14T04:30:13.064Z,41.28
2023-02-14T04:32:58.735Z,46.92
2023-02-14T04:35:44.645Z,46.75
2023-02-14T04:38:32.319Z,49.72
2023-02-14T04:41:18.208Z,49.60
2023-02-14T04:44:04.174Z,52.03
2023-02-14T04:46:50.087Z,50.60
2023-02-14T04:49:36.388Z,53.15
2023-02-14T04:52:22.258Z,53.10
2023-02-14T04:55:09.327Z,50.13
2023-02-14T04:57:55.670Z,55.00
2023-02-14T05:00:41.328Z,53.55
2023-02-14T05:03:27.234Z,52.80
2023-02-14T05:06:13.126Z,56.20
2023-02-14T05:08:59.230Z,67.40
2023-02-14T05:11:45.147Z,70.75
2023-02-14T05:14:31.015Z,57.63
2023-02-14T05:17:16.862Z,52.67
2023-02-14T05:20:04.098Z,55.83
2023-02-14T05:22:49.996Z,55.42
2023-02-14T05:25:35.676Z,54.22
2023-02-14T05:28:21.714Z,60.10
2023-02-14T05:31:08.265Z,60.80
2023-02-14T05:33:54.552Z,52.50
2023-02-14T05:36:40.449Z,52.35
2023-02-14T05:39:26.368Z,55.90
2023-02-14T05:42:12.103Z,60.50
2023-02-14T05:44:58.042Z,59.97
2023-02-14T05:47:43.844Z,57.63
2023-02-14T05:50:30.079Z,58.65
2023-02-14T05:53:16.648Z,54.92
2023-02-14T05:56:02.654Z,53.35
2023-02-14T05:58:48.841Z,54.17
2023-02-14T06:01:34.578Z,55.20
2023-02-14T06:04:20.370Z,55.88
2023-02-14T06:07:06.244Z,61.97
2023-02-14T06:09:52.066Z,64.95
2023-02-14T06:12:37.945Z,56.17
2023-02-14T06:15:24.038Z,57.45
2023-02-14T06:18:10.039Z,59.92
2023-02-14T06:20:56.303Z,58.60
2023-02-14T06:23:42.320Z,61.40
2023-02-14T06:26:28.309Z,67.80
2023-02-14T06:29:16.903Z,75.13
2023-02-14T06:32:06.743Z,71.57
2023-02-14T06:34:52.932Z,78.20
2023-02-14T06:37:42.136Z,79.63
2023-02-14T06:40:28.334Z,65.43
2023-02-14T06:43:14.043Z,58.75
2023-02-14T06:45:59.965Z,55.42
2023-02-14T06:48:45.629Z,55.67
2023-02-14T06:51:31.559Z,52.60
2023-02-14T06:54:17.356Z,52.17
2023-02-14T06:57:03.468Z,57.38
2023-02-14T06:59:49.482Z,56.03
2023-02-14T07:02:35.516Z,55.08
2023-02-14T07:05:21.955Z,53.20
2023-02-14T07:08:08.304Z,58.83
2023-02-14T07:10:58.887Z,65.18
2023-02-14T07:13:45.414Z,64.35
2023-02-14T07:16:31.101Z,60.67
2023-02-14T07:19:17.178Z,73.93
2023-02-14T07:22:02.943Z,72.90
2023-02-14T07:24:48.769Z,87.43
2023-02-14T07:27:34.823Z,95.13
2023-02-14T07:30:20.560Z,69.32
2023-02-14T07:33:06.571Z,58.45
2023-02-14T07:35:52.440Z,60.80
2023-02-14T07:38:38.458Z,71.50
2023-02-14T07:41:24.579Z,72.60
2023-02-14T07:44:10.691Z,85.43
2023-02-14T07:46:56.488Z,79.78
2023-02-14T07:49:42.360Z,73.93
2023-02-14T07:52:28.118Z,65.97
2023-02-14T07:55:14.445Z,64.55
2023-02-14T07:58:00.906Z,54.38
2023-02-14T08:00:46.953Z,57.55
2023-02-14T08:03:33.024Z,58.78
2023-02-14T08:06:19.329Z,59.45
2023-02-14T08:09:05.575Z,84.50
2023-02-14T08:12:15.184Z,89.93
2023-02-14T08:15:20.999Z,66.63
2023-02-14T08:18:07.152Z,75.43
2023-02-14T08:20:53.340Z,65.00
2023-02-14T08:23:39.401Z,24.42
2023-02-14T08:26:25.420Z,19.45
2023-02-14T08:29:11.480Z,17.52
2023-02-14T08:32:00.326Z,13.98
2023-02-14T08:34:47.258Z,13.13
2023-02-14T08:37:32.937Z,12.63
2023-02-14T08:40:19.862Z,14.73
2023-02-14T08:43:06.927Z,12.82
2023-02-14T08:45:53.957Z,13.45
2023-02-14T08:48:39.730Z,11.50
2023-02-14T08:51:26.201Z,12.73
2023-02-14T08:54:11.964Z,10.48
2023-02-14T08:56:58.130Z,11.30
2023-02-14T08:59:44.938Z,12.43
2023-02-14T09:02:30.695Z,11.32
2023-02-14T09:05:16.745Z,10.55
2023-02-14T09:08:03.134Z,11.10
2023-02-14T09:10:49.246Z,11.90
2023-02-14T09:13:35.091Z,12.98
2023-02-14T09:16:22.069Z,10.45
2023-02-14T09:19:07.879Z,10.48
2023-02-14T09:21:53.743Z,11.23
2023-02-14T09:24:41.515Z,10.52
2023-02-14T09:27:28.197Z,9.90
2023-02-14T09:30:14.681Z,11.05
2023-02-14T09:33:00.476Z,10.43
2023-02-14T09:35:46.706Z,10.25
2023-02-14T09:38:32.567Z,12.13
2023-02-14T09:41:50.193Z,11.18
2023-02-14T09:44:39.105Z,12.65
2023-02-14T09:48:00.144Z,10.02
2023-02-14T09:50:49.188Z,9.43
2023-02-14T09:53:45.834Z,9.65
2023-02-14T09:56:52.176Z,10.43
2023-02-14T10:00:11.149Z,10.30
2023-02-14T10:03:12.204Z,9.85
2023-02-14T10:06:07.439Z,9.50
2023-02-14T10:09:01.244Z,10.60
2023-02-14T10:11:48.173Z,10.60
2023-02-14T10:14:40.406Z,11.25
2023-02-14T10:17:42.838Z,10.35
2023-02-14T10:20:35.791Z,10.50
2023-02-14T10:26:20.787Z,11.10
2023-02-14T10:29:14.312Z,11.18
2023-02-14T10:32:02.532Z,11.35
2023-02-14T10:34:50.452Z,10.35
2023-02-14T10:37:51.268Z,12.05
2023-02-14T10:40:55.630Z,11.50
2023-02-14T10:43:53.662Z,11.38
2023-02-14T10:47:04.059Z,10.45
2023-02-14T10:49:58.308Z,10.80
2023-02-14T10:53:19.162Z,11.18
2023-02-14T10:56:08.976Z,11.20
2023-02-14T10:58:56.801Z,11.32
2023-02-14T11:01:42.904Z,10.07
2023-02-14T11:04:30.990Z,10.70
2023-02-14T11:07:19.106Z,10.45
2023-02-14T11:10:11.458Z,10.38
2023-02-14T11:12:58.070Z,10.77
2023-02-14T11:15:46.320Z,10.07
2023-02-14T11:18:35.720Z,10.23
2023-02-14T11:21:24.388Z,9.65
2023-02-14T11:24:29.323Z,9.80
2023-02-14T11:27:17.543Z,9.05
2023-02-14T11:30:13.587Z,9.73
2023-02-14T11:33:00.436Z,9.13
2023-02-14T11:35:50.932Z,8.70
2023-02-14T11:38:40.068Z,8.10
2023-02-14T11:41:26.153Z,8.02
2023-02-14T11:44:22.463Z,8.13
2023-02-14T11:47:29.336Z,7.95
2023-02-14T11:50:24.786Z,8.27
2023-02-14T11:53:12.482Z,9.15
2023-02-14T11:56:00.771Z,8.55
2023-02-14T11:58:56.746Z,7.57
2023-02-14T12:01:46.228Z,8.38
2023-02-14T12:04:38.181Z,8.00
2023-02-14T12:07:34.429Z,6.60
2023-02-14T12:10:27.714Z,6.30
2023-02-14T12:13:13.682Z,7.47
2023-02-14T12:16:00.443Z,7.05
2023-02-14T12:18:54.421Z,6.93
2023-02-14T12:22:01.034Z,6.55
2023-02-14T12:24:52.837Z,7.05
2023-02-14T12:27:48.125Z,6.75
2023-02-14T12:30:35.299Z,6.22
2023-02-14T12:33:22.248Z,6.43
2023-02-14T12:36:39.555Z,5.68
2023-02-14T12:39:42.450Z,7.22
2023-02-14T12:46:04.116Z,7.78
2023-02-14T12:49:28.947Z,5.93
2023-02-14T12:52:33.227Z,5.20
2023-02-14T12:55:48.679Z,7.30
2023-02-14T12:58:49.777Z,7.78
2023-02-14T13:01:56.385Z,8.18
2023-02-14T13:04:53.606Z,7.57
2023-02-14T13:08:04.363Z,8.48
2023-02-14T13:11:22.066Z,8.02
2023-02-14T13:14:43.089Z,9.43
2023-02-14T13:17:35.059Z,8.88
2023-02-14T13:20:39.020Z,7.20
2023-02-14T13:23:40.037Z,6.65
2023-02-14T13:26:30.446Z,6.03
2023-02-14T13:29:20.539Z,5.30
2023-02-14T13:32:06.700Z,6.38
2023-02-14T13:34:53.218Z,7.10
2023-02-14T13:37:39.276Z,26.50
2023-02-14T13:40:26.501Z,6.28
2023-02-14T13:43:12.264Z,5.55
2023-02-14T13:45:58.162Z,5.32
2023-02-14T13:48:55.949Z,5.70
2023-02-14T13:51:45.021Z,5.38
2023-02-14T13:54:31.111Z,5.97
2023-02-14T13:57:32.491Z,5.70
2023-02-14T14:00:21.402Z,6.43
2023-02-14T14:03:13.753Z,8.27
2023-02-14T14:06:13.255Z,7.50
2023-02-14T14:08:58.981Z,5.40
2023-02-14T14:11:44.833Z,5.30
2023-02-14T14:14:36.217Z,5.78
2023-02-14T14:17:26.051Z,5.72
2023-02-14T14:20:21.303Z,7.10
2023-02-14T14:23:28.647Z,7.65
2023-02-14T14:26:36.853Z,8.50
2023-02-14T14:29:45.610Z,6.32
2023-02-14T14:32:36.969Z,8.90
2023-02-14T14:35:24.883Z,7.25
2023-02-14T14:38:13.831Z,6.97
2023-02-14T14:41:01.232Z,7.53
2023-02-14T14:43:47.624Z,6.68
2023-02-14T14:46:33.693Z,7.90
2023-02-14T14:49:21.366Z,7.80
2023-02-14T14:52:08.130Z,9.15
2023-02-14T14:54:53.804Z,7.10
2023-02-14T14:57:40.055Z,6.63
2023-02-14T15:00:29.879Z,8.05
2023-02-14T15:03:18.255Z,7.72
2023-02-14T15:06:07.025Z,9.52
2023-02-14T15:08:52.934Z,9.15
2023-02-14T15:11:57.466Z,9.27
2023-02-14T15:14:46.476Z,8.60
2023-02-14T15:17:32.777Z,9.25
2023-02-14T15:20:21.730Z,8.75
2023-02-14T15:23:08.034Z,8.45
2023-02-14T15:25:53.873Z,9.48
2023-02-14T15:28:39.727Z,8.77
2023-02-14T15:31:29.497Z,8.05
2023-02-14T15:34:15.829Z,8.75
2023-02-14T15:37:06.734Z,8.90
2023-02-14T15:39:57.824Z,9.55
2023-02-14T15:42:44.828Z,10.57
2023-02-14T15:45:31.292Z,8.77
2023-02-14T15:48:27.073Z,9.05
2023-02-14T15:51:25.223Z,9.23
2023-02-14T15:54:33.438Z,9.73
2023-02-14T15:57:29.904Z,9.35
2023-02-14T16:00:18.052Z,9.45
2023-02-14T16:03:07.415Z,9.60
2023-02-14T16:05:54.873Z,8.82
2023-02-14T16:08:41.751Z,10.23
2023-02-14T16:11:33.326Z,8.68
2023-02-14T16:14:42.820Z,9.60
2023-02-14T16:17:34.656Z,9.95
2023-02-14T16:20:21.272Z,9.60
2023-02-14T16:23:17.825Z,11.40
2023-02-14T16:26:06.816Z,14.55
2023-02-14T16:28:52.779Z,10.88
2023-02-14T16:31:51.900Z,11.02
2023-02-14T16:34:48.389Z,9.43
2023-02-14T16:37:34.855Z,10.98
2023-02-14T16:40:25.044Z,9.93
2023-02-14T16:43:19.501Z,9.75
2023-02-14T16:46:05.680Z,11.70
2023-02-14T16:48:54.576Z,11.13
2023-02-14T16:51:43.464Z,10.52
2023-02-14T16:54:29.701Z,10.40
2023-02-14T16:57:42.511Z,10.10
2023-02-14T17:03:14.443Z,9.95
2023-02-14T17:06:00.678Z,10.00
2023-02-14T17:08:47.610Z,10.73
2023-02-14T17:11:41.196Z,9.48
2023-02-14T17:14:30.135Z,8.80
2023-02-14T17:17:17.544Z,10.10
2023-02-14T17:20:06.039Z,10.68
2023-02-14T17:22:52.276Z,10.30
2023-02-14T17:25:38.834Z,12.35
2023-02-14T17:28:26.644Z,11.90
2023-02-14T17:31:13.188Z,10.32
2023-02-14T17:33:59.251Z,10.43
2023-02-14T17:36:45.470Z,10.18
2023-02-14T17:39:31.323Z,9.88
2023-02-14T17:42:17.006Z,9.68
2023-02-14T17:45:06.128Z,9.02
2023-02-14T17:47:52.401Z,9.68
2023-02-14T17:50:38.203Z,9.13
2023-02-14T17:53:23.912Z,10.18
2023-02-14T17:56:11.913Z,9.75
2023-02-14T17:58:59.874Z,10.20
2023-02-14T18:01:45.963Z,9.60
2023-02-14T18:04:35.005Z,9.45
2023-02-14T18:07:21.503Z,8.85
2023-02-14T18:10:08.481Z,10.05
2023-02-14T18:12:54.414Z,9.32
2023-02-14T18:15:40.277Z,9.65
2023-02-14T18:18:26.216Z,9.60
2023-02-14T18:21:14.179Z,10.25
2023-02-14T18:24:00.673Z,11.00
2023-02-14T18:26:47.047Z,9.80
2023-02-14T18:29:33.971Z,10.98
2023-02-14T18:32:20.175Z,10.70
2023-02-14T18:35:06.243Z,9.82
2023-02-14T18:37:52.473Z,10.23
2023-02-14T18:40:38.658Z,11.90
2023-02-14T18:43:24.778Z,11.77
2023-02-14T18:46:25.736Z,9.88
2023-02-14T18:49:13.400Z,10.77
2023-02-14T18:51:59.450Z,11.25
2023-02-14T18:54:45.194Z,11.25
2023-02-14T18:57:31.533Z,12.32
2023-02-14T19:00:17.891Z,11.40
2023-02-14T19:03:03.589Z,12.30
2023-02-14T19:05:49.635Z,11.52
2023-02-14T19:08:37.719Z,12.10
2023-02-14T19:11:31.351Z,11.30
2023-02-14T19:14:18.361Z,12.02
2023-02-14T19:17:04.947Z,11.80
2023-02-14T19:19:54.436Z,11.88
2023-02-14T19:22:41.437Z,10.48
2023-02-14T19:25:29.522Z,11.65
2023-02-14T19:28:15.786Z,10.75
2023-02-14T19:31:02.405Z,13.60
2023-02-14T19:33:48.949Z,11.73
2023-02-14T19:36:37.582Z,12.93
2023-02-14T19:39:24.585Z,11.30
2023-02-14T19:42:10.759Z,11.88
2023-02-14T19:44:59.121Z,11.63
2023-02-14T19:47:47.310Z,10.93
2023-02-14T19:50:33.759Z,10.88
2023-02-14T19:53:19.547Z,11.23
2023-02-14T19:56:06.411Z,13.02
2023-02-14T19:58:52.839Z,11.35
2023-02-14T20:01:42.188Z,11.43
2023-02-14T20:04:29.759Z,11.68
2023-02-14T20:07:17.473Z,11.40
2023-02-14T20:10:04.622Z,12.38
2023-02-14T20:12:50.774Z,11.95
2023-02-14T20:15:37.578Z,11.07
2023-02-14T20:18:23.880Z,11.05
2023-02-14T20:21:16.808Z,11.48
2023-02-14T20:26:50.822Z,11.20
2023-02-14T20:29:39.067Z,9.65
2023-02-14T20:32:25.261Z,11.85
2023-02-14T20:35:11.628Z,11.50
2023-02-14T20:37:57.760Z,11.25
2023-02-14T20:40:44.666Z,11.73
2023-02-14T20:43:30.752Z,11.55
2023-02-14T20:46:17.060Z,10.68
2023-02-14T20:49:03.780Z,12.65
2023-02-14T20:51:50.364Z,12.50
2023-02-14T20:54:38.878Z,10.65
2023-02-14T20:57:25.331Z,12.15
2023-02-14T21:00:11.538Z,10.85
2023-02-14T21:02:57.565Z,12.18
2023-02-14T21:05:43.371Z,9.88
2023-02-14T21:08:29.372Z,10.57
2023-02-14T21:11:17.497Z,11.32
2023-02-14T21:14:03.564Z,10.02
2023-02-14T21:16:49.510Z,9.93
2023-02-14T21:19:35.701Z,10.60
2023-02-14T21:22:21.665Z,10.02
2023-02-14T21:25:07.963Z,8.75
2023-02-14T21:27:54.337Z,10.13
2023-02-14T21:30:40.438Z,9.63
2023-02-14T21:33:31.966Z,9.40
2023-02-14T21:36:23.117Z,9.80
2023-02-14T21:39:09.662Z,10.90
2023-02-14T21:41:56.344Z,9.45
2023-02-14T21:45:00.805Z,9.43
2023-02-14T21:48:06.759Z,9.75
2023-02-14T21:50:52.789Z,10.77
2023-02-14T21:53:38.886Z,11.07
2023-02-14T21:56:24.842Z,12.05
2023-02-14T21:59:11.516Z,10.32
2023-02-14T22:01:58.978Z,9.60
2023-02-14T22:04:45.728Z,10.30
2023-02-14T22:07:31.652Z,10.25
2023-02-14T22:10:17.492Z,10.05
2023-02-14T22:13:03.303Z,9.23
2023-02-14T22:15:49.605Z,9.50
2023-02-14T22:18:35.680Z,10.05
2023-02-14T22:21:24.129Z,10.63
2023-02-14T22:24:10.417Z,10.48
2023-02-14T22:26:56.205Z,10.55
2023-02-14T22:29:42.599Z,10.98
2023-02-14T22:32:29.157Z,10.32
2023-02-14T22:35:15.021Z,10.57
2023-02-14T22:38:01.037Z,11.20
2023-02-14T22:40:46.792Z,10.93
2023-02-14T22:43:32.673Z,10.82
2023-02-14T22:46:21.553Z,11.93
2023-02-14T22:49:07.579Z,12.13
2023-02-14T22:51:53.562Z,10.90
2023-02-14T22:54:39.558Z,11.90
2023-02-14T22:57:25.806Z,11.38
2023-02-14T23:00:12.029Z,12.55
2023-02-14T23:02:57.990Z,11.60
2023-02-14T23:05:43.832Z,12.48
2023-02-14T23:08:29.789Z,11.23
2023-02-14T23:11:20.762Z,12.10
2023-02-14T23:14:25.223Z,11.75
2023-02-14T23:17:18.559Z,11.38
2023-02-14T23:20:23.592Z,13.52
2023-02-14T23:23:09.646Z,11.93
2023-02-14T23:25:55.673Z,12.95
2023-02-14T23:28:41.417Z,11.68
2023-02-14T23:31:27.360Z,12.07
2023-02-14T23:34:13.433Z,13.15
2023-02-14T23:36:59.861Z,13.45
2023-02-14T23:39:45.898Z,12.80
2023-02-14T23:42:31.819Z,12.68
2023-02-14T23:45:35.770Z,13.20
2023-02-14T23:48:21.726Z,13.05
2023-02-14T23:51:07.664Z,12.15
2023-02-14T23:53:54.617Z,11.48
2023-02-14T23:56:40.815Z,12.07
2023-02-14T23:59:27.380Z,12.65
